sensor_id;sensor_type;location;lat;lon;timestamp;pressure;altitude;pressure_sealevel;temperature;humidity
64019;BME280;66942;52.138;5.216;2023-10-08T00:00:44;102274.0;;;29.19;41.3
64019;BME280;66942;52.138;5.216;2023-10-08T00:03:57;102284.0;;;29.02;41.61
64019;BME280;66942;52.138;5.216;2023-10-08T00:05:35;102296.0;;;28.9;41.93
64019;BME280;66942;52.138;5.216;2023-10-08T00:07:11;102309.0;;;29.72;40.21
64019;BME280;66942;52.138;5.216;2023-10-08T00:08:48;102313.0;;;29.35;40.92
64019;BME280;66942;52.138;5.216;2023-10-08T00:12:01;102320.0;;;29.21;41.23
64019;BME280;66942;52.138;5.216;2023-10-08T00:13:37;102318.0;;;29.0;41.67
64019;BME280;66942;52.138;5.216;2023-10-08T00:15:14;102311.0;;;29.34;41.07
64019;BME280;66942;52.138;5.216;2023-10-08T00:18:26;102306.0;;;29.21;41.42
64019;BME280;66942;52.138;5.216;2023-10-08T00:20:03;102307.0;;;29.18;41.37
64019;BME280;66942;52.138;5.216;2023-10-08T00:21:39;102311.0;;;28.89;41.94
64019;BME280;66942;52.138;5.216;2023-10-08T00:24:52;102315.0;;;28.86;41.94
64019;BME280;66942;52.138;5.216;2023-10-08T00:26:28;102306.0;;;28.94;41.91
64019;BME280;66942;52.138;5.216;2023-10-08T00:28:05;102305.0;;;29.28;41.14
64019;BME280;66942;52.138;5.216;2023-10-08T00:29:43;102303.0;;;29.05;41.68
64019;BME280;66942;52.138;5.216;2023-10-08T00:32:55;102305.0;;;29.15;41.54
64019;BME280;66942;52.138;5.216;2023-10-08T00:34:31;102299.0;;;28.9;42.05
64019;BME280;66942;52.138;5.216;2023-10-08T00:36:08;102297.0;;;28.87;42.14
64019;BME280;66942;52.138;5.216;2023-10-08T00:39:20;102289.0;;;28.84;42.26
64019;BME280;66942;52.138;5.216;2023-10-08T00:40:56;102289.0;;;28.75;42.47
64019;BME280;66942;52.138;5.216;2023-10-08T00:42:32;102290.0;;;28.98;41.86
64019;BME280;66942;52.138;5.216;2023-10-08T00:45:45;102287.0;;;28.75;42.31
64019;BME280;66942;52.138;5.216;2023-10-08T00:47:21;102280.0;;;28.67;42.48
64019;BME280;66942;52.138;5.216;2023-10-08T00:49:00;102276.0;;;28.83;42.15
64019;BME280;66942;52.138;5.216;2023-10-08T00:50:36;102277.0;;;28.67;42.45
64019;BME280;66942;52.138;5.216;2023-10-08T00:53:54;102276.0;;;28.75;42.37
64019;BME280;66942;52.138;5.216;2023-10-08T00:55:31;102269.0;;;28.74;42.4
64019;BME280;66942;52.138;5.216;2023-10-08T00:57:07;102269.0;;;28.73;42.25
64019;BME280;66942;52.138;5.216;2023-10-08T01:00:20;102267.0;;;28.71;42.51
64019;BME280;66942;52.138;5.216;2023-10-08T01:01:56;102268.0;;;28.59;42.72
64019;BME280;66942;52.138;5.216;2023-10-08T01:03:32;102266.0;;;28.55;42.5
64019;BME280;66942;52.138;5.216;2023-10-08T01:06:45;102270.0;;;29.06;41.72
64019;BME280;66942;52.138;5.216;2023-10-08T01:08:22;102272.0;;;29.26;41.17
64019;BME280;66942;52.138;5.216;2023-10-08T01:10:00;102275.0;;;28.85;42.0
64019;BME280;66942;52.138;5.216;2023-10-08T01:11:36;102267.0;;;28.9;41.83
64019;BME280;66942;52.138;5.216;2023-10-08T01:14:48;102263.0;;;28.76;42.27
64019;BME280;66942;52.138;5.216;2023-10-08T01:16:24;102258.0;;;28.51;42.5
64019;BME280;66942;52.138;5.216;2023-10-08T01:18:02;102251.0;;;28.37;42.94
64019;BME280;66942;52.138;5.216;2023-10-08T01:21:15;102255.0;;;28.4;43.07
64019;BME280;66942;52.138;5.216;2023-10-08T01:22:53;102257.0;;;28.74;42.29
64019;BME280;66942;52.138;5.216;2023-10-08T01:24:29;102257.0;;;28.41;42.93
64019;BME280;66942;52.138;5.216;2023-10-08T01:27:41;102259.0;;;28.43;42.85
64019;BME280;66942;52.138;5.216;2023-10-08T01:29:17;102267.0;;;28.36;43.15
64019;BME280;66942;52.138;5.216;2023-10-08T01:30:54;102271.0;;;28.53;42.8
64019;BME280;66942;52.138;5.216;2023-10-08T01:32:30;102280.0;;;28.4;42.93
64019;BME280;66942;52.138;5.216;2023-10-08T01:35:44;102286.0;;;28.71;42.31
64019;BME280;66942;52.138;5.216;2023-10-08T01:37:20;102283.0;;;28.49;42.69
64019;BME280;66942;52.138;5.216;2023-10-08T01:38:56;102277.0;;;28.29;43.2
64019;BME280;66942;52.138;5.216;2023-10-08T01:42:09;102281.0;;;28.44;43.02
64019;BME280;66942;52.138;5.216;2023-10-08T01:43:45;102292.0;;;28.66;42.54
64019;BME280;66942;52.138;5.216;2023-10-08T01:45:22;102292.0;;;28.77;42.33
64019;BME280;66942;52.138;5.216;2023-10-08T01:48:33;102292.0;;;28.35;42.98
64019;BME280;66942;52.138;5.216;2023-10-08T01:50:10;102292.0;;;28.22;43.34
64019;BME280;66942;52.138;5.216;2023-10-08T01:51:46;102299.0;;;28.42;43.11
64019;BME280;66942;52.138;5.216;2023-10-08T01:53:22;102308.0;;;29.23;41.31
64019;BME280;66942;52.138;5.216;2023-10-08T01:56:34;102318.0;;;29.08;41.54
64019;BME280;66942;52.138;5.216;2023-10-08T01:58:12;102324.0;;;28.82;42.09
64019;BME280;66942;52.138;5.216;2023-10-08T01:59:49;102334.0;;;28.69;42.38
64019;BME280;66942;52.138;5.216;2023-10-08T02:03:03;102339.0;;;29.34;41.07
64019;BME280;66942;52.138;5.216;2023-10-08T02:04:40;102334.0;;;28.62;42.51
64019;BME280;66942;52.138;5.216;2023-10-08T02:06:16;102340.0;;;28.53;42.87
64019;BME280;66942;52.138;5.216;2023-10-08T02:09:28;102330.0;;;28.52;42.8
64019;BME280;66942;52.138;5.216;2023-10-08T02:11:04;102324.0;;;28.89;41.94
64019;BME280;66942;52.138;5.216;2023-10-08T02:12:40;102328.0;;;28.52;42.82
64019;BME280;66942;52.138;5.216;2023-10-08T02:14:17;102357.0;;;29.06;41.82
64019;BME280;66942;52.138;5.216;2023-10-08T02:17:32;102330.0;;;28.83;42.2
64019;BME280;66942;52.138;5.216;2023-10-08T02:19:09;102358.0;;;29.07;41.84
64019;BME280;66942;52.138;5.216;2023-10-08T02:20:46;102327.0;;;29.03;41.82
64019;BME280;66942;52.138;5.216;2023-10-08T02:23:59;102315.0;;;28.78;42.35
64019;BME280;66942;52.138;5.216;2023-10-08T02:25:36;102314.0;;;28.93;42.16
64019;BME280;66942;52.138;5.216;2023-10-08T02:27:12;102311.0;;;29.46;40.97
64019;BME280;66942;52.138;5.216;2023-10-08T02:30:26;102328.0;;;29.28;41.24
64019;BME280;66942;52.138;5.216;2023-10-08T02:32:03;102356.0;;;29.32;41.35
64019;BME280;66942;52.138;5.216;2023-10-08T02:33:39;102321.0;;;29.17;41.67
64019;BME280;66942;52.138;5.216;2023-10-08T02:35:16;102339.0;;;28.77;42.49
64019;BME280;66942;52.138;5.216;2023-10-08T02:38:29;102333.0;;;28.8;42.42
64019;BME280;66942;52.138;5.216;2023-10-08T02:40:06;102325.0;;;28.62;42.88
64019;BME280;66942;52.138;5.216;2023-10-08T02:41:44;102314.0;;;28.8;42.49
64019;BME280;66942;52.138;5.216;2023-10-08T02:44:56;102285.0;;;28.67;42.69
64019;BME280;66942;52.138;5.216;2023-10-08T02:46:32;102301.0;;;28.59;42.97
64019;BME280;66942;52.138;5.216;2023-10-08T02:48:08;102340.0;;;29.17;41.75
64019;BME280;66942;52.138;5.216;2023-10-08T02:51:21;102338.0;;;29.5;40.96
64019;BME280;66942;52.138;5.216;2023-10-08T02:52:57;102335.0;;;29.32;41.39
64019;BME280;66942;52.138;5.216;2023-10-08T02:54:33;102336.0;;;28.69;42.5
64019;BME280;66942;52.138;5.216;2023-10-08T02:56:09;102369.0;;;28.9;42.12
64019;BME280;66942;52.138;5.216;2023-10-08T02:59:22;102330.0;;;29.18;41.41
64019;BME280;66942;52.138;5.216;2023-10-08T03:00:58;102320.0;;;28.86;42.14
64019;BME280;66942;52.138;5.216;2023-10-08T03:02:35;102327.0;;;29.15;41.63
64019;BME280;66942;52.138;5.216;2023-10-08T03:05:49;102339.0;;;29.34;41.13
64019;BME280;66942;52.138;5.216;2023-10-08T03:07:26;102357.0;;;29.03;41.74
64019;BME280;66942;52.138;5.216;2023-10-08T03:09:02;102338.0;;;28.65;42.58
64019;BME280;66942;52.138;5.216;2023-10-08T03:12:17;102331.0;;;28.41;43.07
64019;BME280;66942;52.138;5.216;2023-10-08T03:13:53;102340.0;;;28.37;43.05
64019;BME280;66942;52.138;5.216;2023-10-08T03:15:29;102347.0;;;28.3;43.28
64019;BME280;66942;52.138;5.216;2023-10-08T03:17:05;102343.0;;;28.25;43.38
64019;BME280;66942;52.138;5.216;2023-10-08T03:20:19;102330.0;;;28.39;43.15
64019;BME280;66942;52.138;5.216;2023-10-08T03:21:55;102338.0;;;28.53;42.89
64019;BME280;66942;52.138;5.216;2023-10-08T03:23:31;102327.0;;;28.34;43.16
64019;BME280;66942;52.138;5.216;2023-10-08T03:26:44;102311.0;;;29.06;41.67
64019;BME280;66942;52.138;5.216;2023-10-08T03:28:20;102314.0;;;28.35;43.02
64019;BME280;66942;52.138;5.216;2023-10-08T03:29:56;102320.0;;;28.25;43.39
64019;BME280;66942;52.138;5.216;2023-10-08T03:33:09;102332.0;;;29.03;41.37
64019;BME280;66942;52.138;5.216;2023-10-08T03:34:47;102336.0;;;29.32;40.87
64019;BME280;66942;52.138;5.216;2023-10-08T03:36:23;102364.0;;;29.44;40.62
64019;BME280;66942;52.138;5.216;2023-10-08T03:37:59;102375.0;;;28.87;41.67
64019;BME280;66942;52.138;5.216;2023-10-08T03:41:11;102380.0;;;29.41;40.68
64019;BME280;66942;52.138;5.216;2023-10-08T03:42:47;102372.0;;;28.7;42.09
64019;BME280;66942;52.138;5.216;2023-10-08T03:44:23;102372.0;;;28.45;42.74
64019;BME280;66942;52.138;5.216;2023-10-08T03:47:36;102375.0;;;28.2;43.2
64019;BME280;66942;52.138;5.216;2023-10-08T03:49:12;102376.0;;;28.18;43.3
64019;BME280;66942;52.138;5.216;2023-10-08T03:50:49;102382.0;;;28.38;42.99
64019;BME280;66942;52.138;5.216;2023-10-08T03:54:00;102384.0;;;28.44;42.79
64019;BME280;66942;52.138;5.216;2023-10-08T03:55:38;102387.0;;;28.09;43.48
64019;BME280;66942;52.138;5.216;2023-10-08T03:57:14;102396.0;;;28.18;43.31
64019;BME280;66942;52.138;5.216;2023-10-08T03:58:51;102385.0;;;28.3;43.12
64019;BME280;66942;52.138;5.216;2023-10-08T04:02:03;102378.0;;;28.66;42.25
64019;BME280;66942;52.138;5.216;2023-10-08T04:03:39;102392.0;;;28.08;43.58
64019;BME280;66942;52.138;5.216;2023-10-08T04:05:15;102415.00000000001;;;28.78;41.75
64019;BME280;66942;52.138;5.216;2023-10-08T04:08:28;102428.0;;;28.94;41.63
64019;BME280;66942;52.138;5.216;2023-10-08T04:10:06;102421.0;;;28.63;42.35
64019;BME280;66942;52.138;5.216;2023-10-08T04:11:42;102423.0;;;28.31;43.09
64019;BME280;66942;52.138;5.216;2023-10-08T04:14:54;102429.0;;;28.66;42.47
64019;BME280;66942;52.138;5.216;2023-10-08T04:16:32;102433.99999999999;;;28.83;41.87
64019;BME280;66942;52.138;5.216;2023-10-08T04:18:10;102436.99999999999;;;28.6;42.6
64019;BME280;66942;52.138;5.216;2023-10-08T04:21:24;102436.99999999999;;;28.57;42.41
64019;BME280;66942;52.138;5.216;2023-10-08T04:23:02;102442.0;;;28.63;42.05
64019;BME280;66942;52.138;5.216;2023-10-08T04:24:39;102429.0;;;28.28;42.35
64019;BME280;66942;52.138;5.216;2023-10-08T04:26:15;102433.0;;;27.96;42.69
64019;BME280;66942;52.138;5.216;2023-10-08T04:29:27;102434.99999999999;;;28.17;42.05
64019;BME280;66942;52.138;5.216;2023-10-08T04:31:03;102440.00000000001;;;27.57;42.1
64019;BME280;66942;52.138;5.216;2023-10-08T04:32:40;102428.0;;;28.07;40.89
64019;BME280;66942;52.138;5.216;2023-10-08T04:35:52;102426.0;;;27.87;40.98
64019;BME280;66942;52.138;5.216;2023-10-08T04:37:28;102420.0;;;28.07;40.42
64019;BME280;66942;52.138;5.216;2023-10-08T04:39:04;102415.00000000001;;;27.75;41.09
64019;BME280;66942;52.138;5.216;2023-10-08T04:40:41;102409.99999999999;;;27.4;41.87
64019;BME280;66942;52.138;5.216;2023-10-08T04:43:53;102404.0;;;27.17;42.35
64019;BME280;66942;52.138;5.216;2023-10-08T04:45:30;102404.0;;;27.62;41.11
64019;BME280;66942;52.138;5.216;2023-10-08T04:47:07;102403.0;;;27.56;41.0
64019;BME280;66942;52.138;5.216;2023-10-08T04:50:19;102408.99999999999;;;27.52;40.83
64019;BME280;66942;52.138;5.216;2023-10-08T04:51:57;102429.0;;;27.73;40.24
64019;BME280;66942;52.138;5.216;2023-10-08T04:53:34;102445.0;;;27.15;40.83
64019;BME280;66942;52.138;5.216;2023-10-08T04:56:46;102452.0;;;27.46;40.53
64019;BME280;66942;52.138;5.216;2023-10-08T04:58:22;102450.0;;;27.41;40.44
64019;BME280;66942;52.138;5.216;2023-10-08T04:59:59;102450.0;;;27.54;40.14
64019;BME280;66942;52.138;5.216;2023-10-08T05:03:11;102457.0;;;27.15;40.65
64019;BME280;66942;52.138;5.216;2023-10-08T05:04:48;102452.0;;;27.5;40.21
64019;BME280;66942;52.138;5.216;2023-10-08T05:06:27;102446.0;;;27.07;40.75
64019;BME280;66942;52.138;5.216;2023-10-08T05:08:03;102446.0;;;27.35;40.24
64019;BME280;66942;52.138;5.216;2023-10-08T05:11:16;102441.00000000001;;;27.24;40.42
64019;BME280;66942;52.138;5.216;2023-10-08T05:12:53;102436.99999999999;;;27.0;40.68
64019;BME280;66942;52.138;5.216;2023-10-08T05:14:29;102438.00000000001;;;27.07;40.42
64019;BME280;66942;52.138;5.216;2023-10-08T05:17:42;102447.0;;;27.27;40.12
64019;BME280;66942;52.138;5.216;2023-10-08T05:19:20;102446.0;;;27.0;40.49
64019;BME280;66942;52.138;5.216;2023-10-08T05:20:56;102449.0;;;26.61;40.78
64019;BME280;66942;52.138;5.216;2023-10-08T05:22:33;102454.0;;;26.93;40.49
64019;BME280;66942;52.138;5.216;2023-10-08T05:25:45;102466.00000000001;;;26.93;40.5
64019;BME280;66942;52.138;5.216;2023-10-08T05:27:21;102473.0;;;26.94;40.43
64019;BME280;66942;52.138;5.216;2023-10-08T05:28:57;102479.0;;;26.97;40.32
64019;BME280;66942;52.138;5.216;2023-10-08T05:32:11;102477.0;;;26.72;40.71
64019;BME280;66942;52.138;5.216;2023-10-08T05:33:48;102477.0;;;26.8;40.76
64019;BME280;66942;52.138;5.216;2023-10-08T05:35:25;102481.0;;;26.89;40.42
64019;BME280;66942;52.138;5.216;2023-10-08T05:38:37;102478.0;;;26.46;41.16
64019;BME280;66942;52.138;5.216;2023-10-08T05:40:13;102475.0;;;25.87;41.83
64019;BME280;66942;52.138;5.216;2023-10-08T05:41:50;102472.0;;;26.55;40.87
64019;BME280;66942;52.138;5.216;2023-10-08T05:45:04;102475.0;;;26.68;40.61
64019;BME280;66942;52.138;5.216;2023-10-08T05:46:41;102481.0;;;26.9;40.08
64019;BME280;66942;52.138;5.216;2023-10-08T05:48:17;102488.00000000001;;;26.18;40.99
64019;BME280;66942;52.138;5.216;2023-10-08T05:49:53;102506.0;;;26.68;40.62
64019;BME280;66942;52.138;5.216;2023-10-08T05:53:06;102508.0;;;26.29;41.2
64019;BME280;66942;52.138;5.216;2023-10-08T05:54:42;102507.0;;;26.41;41.12
64019;BME280;66942;52.138;5.216;2023-10-08T05:56:18;102501.0;;;26.39;41.18
64019;BME280;66942;52.138;5.216;2023-10-08T05:59:45;102496.0;;;26.29;41.14
64019;BME280;66942;52.138;5.216;2023-10-08T06:01:21;102480.0;;;26.46;40.67
64019;BME280;66942;52.138;5.216;2023-10-08T06:02:57;102465.00000000001;;;26.21;41.1
64019;BME280;66942;52.138;5.216;2023-10-08T06:04:33;102467.0;;;26.48;40.53
64019;BME280;66942;52.138;5.216;2023-10-08T06:07:47;102478.0;;;26.32;40.67
64019;BME280;66942;52.138;5.216;2023-10-08T06:09:24;102486.99999999999;;;26.13;41.04
64019;BME280;66942;52.138;5.216;2023-10-08T06:11:01;102504.0;;;26.13;40.86
64019;BME280;66942;52.138;5.216;2023-10-08T06:14:14;102515.00000000001;;;25.21;42.21
64019;BME280;66942;52.138;5.216;2023-10-08T06:15:51;102521.0;;;25.98;41.04
64019;BME280;66942;52.138;5.216;2023-10-08T06:17:27;102524.0;;;26.06;40.86
64019;BME280;66942;52.138;5.216;2023-10-08T06:19:03;102532.0;;;25.79;41.29
64019;BME280;66942;52.138;5.216;2023-10-08T06:22:15;102536.99999999999;;;26.11;40.67
64019;BME280;66942;52.138;5.216;2023-10-08T06:23:51;102531.0;;;25.27;41.39
64019;BME280;66942;52.138;5.216;2023-10-08T06:25:27;102533.99999999999;;;25.64;41.05
64019;BME280;66942;52.138;5.216;2023-10-08T06:28:42;102528.0;;;25.62;40.61
64019;BME280;66942;52.138;5.216;2023-10-08T06:30:19;102542.0;;;25.87;40.31
64019;BME280;66942;52.138;5.216;2023-10-08T06:31:57;102543.0;;;25.8;40.49
64019;BME280;66942;52.138;5.216;2023-10-08T06:35:11;102538.00000000001;;;25.69;40.64
64019;BME280;66942;52.138;5.216;2023-10-08T06:36:48;102544.0;;;25.71;40.85
64019;BME280;66942;52.138;5.216;2023-10-08T06:38:24;102542.0;;;25.97;39.74
64019;BME280;66942;52.138;5.216;2023-10-08T06:40:01;102546.0;;;25.91;39.9
64019;BME280;66942;52.138;5.216;2023-10-08T06:43:13;102548.0;;;25.78;40.24
64019;BME280;66942;52.138;5.216;2023-10-08T06:44:49;102549.0;;;25.84;39.87
64019;BME280;66942;52.138;5.216;2023-10-08T06:46:25;102559.99999999999;;;25.58;40.36
64019;BME280;66942;52.138;5.216;2023-10-08T06:49:38;102564.00000000001;;;25.76;40.19
64019;BME280;66942;52.138;5.216;2023-10-08T06:51:15;102564.00000000001;;;25.6;40.17
64019;BME280;66942;52.138;5.216;2023-10-08T06:52:51;102567.0;;;25.87;39.68
64019;BME280;66942;52.138;5.216;2023-10-08T06:56:04;102564.00000000001;;;25.68;40.07
64019;BME280;66942;52.138;5.216;2023-10-08T06:57:41;102571.0;;;25.76;39.6
64019;BME280;66942;52.138;5.216;2023-10-08T06:59:17;102567.0;;;25.44;40.4
64019;BME280;66942;52.138;5.216;2023-10-08T07:00:53;102566.00000000001;;;25.51;40.21
64019;BME280;66942;52.138;5.216;2023-10-08T07:04:05;102568.0;;;25.87;39.35
64019;BME280;66942;52.138;5.216;2023-10-08T07:05:44;102574.0;;;25.94;39.17
64019;BME280;66942;52.138;5.216;2023-10-08T07:07:20;102567.0;;;25.68;39.57
64019;BME280;66942;52.138;5.216;2023-10-08T07:10:34;102571.0;;;25.91;39.28
64019;BME280;66942;52.138;5.216;2023-10-08T07:12:11;102571.0;;;25.59;39.79
64019;BME280;66942;52.138;5.216;2023-10-08T07:13:47;102581.0;;;26.04;38.97
64019;BME280;66942;52.138;5.216;2023-10-08T07:17:00;102578.0;;;25.48;39.35
64019;BME280;66942;52.138;5.216;2023-10-08T07:18:38;102567.0;;;25.79;39.31
64019;BME280;66942;52.138;5.216;2023-10-08T07:20:14;102573.0;;;25.91;39.43
64019;BME280;66942;52.138;5.216;2023-10-08T07:21:51;102573.0;;;25.83;39.46
64019;BME280;66942;52.138;5.216;2023-10-08T07:25:05;102579.0;;;25.91;38.85
64019;BME280;66942;52.138;5.216;2023-10-08T07:26:41;102571.0;;;25.51;39.22
64019;BME280;66942;52.138;5.216;2023-10-08T07:28:18;102568.0;;;25.96;39.04
64019;BME280;66942;52.138;5.216;2023-10-08T07:31:30;102577.0;;;26.13;38.85
64019;BME280;66942;52.138;5.216;2023-10-08T07:33:06;102583.99999999999;;;26.09;38.97
64019;BME280;66942;52.138;5.216;2023-10-08T07:34:42;102581.0;;;25.99;39.67
64019;BME280;66942;52.138;5.216;2023-10-08T07:37:55;102582.0;;;26.13;39.31
64019;BME280;66942;52.138;5.216;2023-10-08T07:39:31;102581.0;;;26.2;38.72
64019;BME280;66942;52.138;5.216;2023-10-08T07:41:08;102583.99999999999;;;25.81;39.08
64019;BME280;66942;52.138;5.216;2023-10-08T07:42:45;102583.0;;;26.2;38.67
64019;BME280;66942;52.138;5.216;2023-10-08T07:45:58;102583.99999999999;;;26.18;38.53
64019;BME280;66942;52.138;5.216;2023-10-08T07:47:34;102583.99999999999;;;25.63;38.97
64019;BME280;66942;52.138;5.216;2023-10-08T07:49:10;102590.00000000001;;;26.37;37.96
64019;BME280;66942;52.138;5.216;2023-10-08T07:52:22;102595.0;;;25.87;38.42
64019;BME280;66942;52.138;5.216;2023-10-08T07:53:58;102601.0;;;25.9;38.54
64019;BME280;66942;52.138;5.216;2023-10-08T07:55:35;102620.0;;;26.04;38.21
64019;BME280;66942;52.138;5.216;2023-10-08T07:58:48;102628.0;;;26.19;38.44
64019;BME280;66942;52.138;5.216;2023-10-08T08:00:24;102628.0;;;26.28;37.82
64019;BME280;66942;52.138;5.216;2023-10-08T08:02:00;102625.0;;;26.24;38.99
64019;BME280;66942;52.138;5.216;2023-10-08T08:05:12;102621.0;;;25.88;39.15
64019;BME280;66942;52.138;5.216;2023-10-08T08:06:50;102619.0;;;26.1;38.71
64019;BME280;66942;52.138;5.216;2023-10-08T08:08:27;102620.0;;;26.23;38.1
64019;BME280;66942;52.138;5.216;2023-10-08T08:10:03;102629.0;;;26.33;38.03
64019;BME280;66942;52.138;5.216;2023-10-08T08:13:16;102638.00000000001;;;26.43;38.14
64019;BME280;66942;52.138;5.216;2023-10-08T08:14:52;102632.0;;;26.38;37.75
64019;BME280;66942;52.138;5.216;2023-10-08T08:16:28;102632.0;;;26.31;37.86
64019;BME280;66942;52.138;5.216;2023-10-08T08:19:42;102644.0;;;26.46;37.64
64019;BME280;66942;52.138;5.216;2023-10-08T08:21:19;102645.0;;;26.43;38.06
64019;BME280;66942;52.138;5.216;2023-10-08T08:22:56;102641.00000000001;;;26.57;37.92
64019;BME280;66942;52.138;5.216;2023-10-08T08:26:08;102641.00000000001;;;26.34;38.04
64019;BME280;66942;52.138;5.216;2023-10-08T08:27:44;102645.0;;;26.41;38.08
64019;BME280;66942;52.138;5.216;2023-10-08T08:29:20;102651.0;;;26.45;38.12
64019;BME280;66942;52.138;5.216;2023-10-08T08:31:01;102654.0;;;26.61;38.06
64019;BME280;66942;52.138;5.216;2023-10-08T08:34:15;102659.99999999999;;;26.84;37.24
64019;BME280;66942;52.138;5.216;2023-10-08T08:35:58;102666.00000000001;;;26.37;38.5
64019;BME280;66942;52.138;5.216;2023-10-08T08:37:35;102670.0;;;26.67;38.06
64019;BME280;66942;52.138;5.216;2023-10-08T08:39:12;102675.0;;;26.54;38.42
64019;BME280;66942;52.138;5.216;2023-10-08T08:42:24;102678.0;;;26.83;37.37
64019;BME280;66942;52.138;5.216;2023-10-08T08:44:02;102676.0;;;26.6;38.4
64019;BME280;66942;52.138;5.216;2023-10-08T08:45:39;102677.0;;;26.67;37.6
64019;BME280;66942;52.138;5.216;2023-10-08T08:48:53;102684.99999999999;;;26.68;37.22
64019;BME280;66942;52.138;5.216;2023-10-08T08:50:34;102679.0;;;27.1;36.96
64019;BME280;66942;52.138;5.216;2023-10-08T08:52:11;102672.0;;;26.91;37.51
64019;BME280;66942;52.138;5.216;2023-10-08T08:55:24;102666.00000000001;;;26.83;37.22
64019;BME280;66942;52.138;5.216;2023-10-08T08:57:03;102667.0;;;27.1;37.0
64019;BME280;66942;52.138;5.216;2023-10-08T08:58:40;102667.0;;;26.82;37.51
64019;BME280;66942;52.138;5.216;2023-10-08T09:00:18;102666.00000000001;;;26.96;37.15
64019;BME280;66942;52.138;5.216;2023-10-08T09:03:33;102657.0;;;27.21;36.79
64019;BME280;66942;52.138;5.216;2023-10-08T09:05:10;102659.99999999999;;;27.11;36.92
64019;BME280;66942;52.138;5.216;2023-10-08T09:06:47;102658.99999999999;;;26.76;37.1
64019;BME280;66942;52.138;5.216;2023-10-08T09:10:05;102658.0;;;26.93;36.71
64019;BME280;66942;52.138;5.216;2023-10-08T09:11:41;102657.0;;;26.91;36.71
64019;BME280;66942;52.138;5.216;2023-10-08T09:13:19;102649.0;;;26.89;36.42
64019;BME280;66942;52.138;5.216;2023-10-08T09:15:00;102642.0;;;26.66;36.82
64019;BME280;66942;52.138;5.216;2023-10-08T09:18:14;102640.00000000001;;;27.11;36.65
64019;BME280;66942;52.138;5.216;2023-10-08T09:19:52;102642.0;;;26.77;36.74
64019;BME280;66942;52.138;5.216;2023-10-08T09:21:29;102645.0;;;27.16;36.31
64019;BME280;66942;52.138;5.216;2023-10-08T09:24:43;102644.0;;;27.08;36.65
64019;BME280;66942;52.138;5.216;2023-10-08T09:26:22;102649.0;;;27.27;36.81
64019;BME280;66942;52.138;5.216;2023-10-08T09:27:58;102648.0;;;27.44;35.85
64019;BME280;66942;52.138;5.216;2023-10-08T09:29:36;102652.0;;;27.42;35.83
64019;BME280;66942;52.138;5.216;2023-10-08T09:32:49;102659.99999999999;;;27.4;35.87
64019;BME280;66942;52.138;5.216;2023-10-08T09:34:27;102661.99999999999;;;27.2;36.24
64019;BME280;66942;52.138;5.216;2023-10-08T09:36:03;102664.00000000001;;;27.19;36.39
64019;BME280;66942;52.138;5.216;2023-10-08T09:39:17;102673.0;;;27.34;36.04
64019;BME280;66942;52.138;5.216;2023-10-08T09:40:56;102671.0;;;27.61;35.61
64019;BME280;66942;52.138;5.216;2023-10-08T09:42:34;102669.0;;;27.12;35.99
64019;BME280;66942;52.138;5.216;2023-10-08T09:44:13;102665.00000000001;;;26.92;35.94
64019;BME280;66942;52.138;5.216;2023-10-08T09:47:49;102663.00000000001;;;27.08;35.92
64019;BME280;66942;52.138;5.216;2023-10-08T09:49:31;102664.00000000001;;;27.29;36.06
64019;BME280;66942;52.138;5.216;2023-10-08T09:51:13;102667.0;;;27.49;35.6
64019;BME280;66942;52.138;5.216;2023-10-08T09:53:08;102659.99999999999;;;27.47;35.54
64019;BME280;66942;52.138;5.216;2023-10-08T09:54:46;102657.0;;;27.54;36.35
64019;BME280;66942;52.138;5.216;2023-10-08T09:58:06;102664.00000000001;;;27.51;36.6
64019;BME280;66942;52.138;5.216;2023-10-08T09:59:45;102665.00000000001;;;27.56;36.21
64019;BME280;66942;52.138;5.216;2023-10-08T10:01:24;102658.99999999999;;;27.4;35.61
64019;BME280;66942;52.138;5.216;2023-10-08T10:03:02;102658.99999999999;;;27.3;36.06
64019;BME280;66942;52.138;5.216;2023-10-08T10:06:19;102659.99999999999;;;27.32;36.32
64019;BME280;66942;52.138;5.216;2023-10-08T10:07:57;102656.0;;;27.57;36.53
64019;BME280;66942;52.138;5.216;2023-10-08T10:09:33;102658.0;;;27.67;35.72
64019;BME280;66942;52.138;5.216;2023-10-08T10:12:47;102652.0;;;27.58;35.78
64019;BME280;66942;52.138;5.216;2023-10-08T10:14:24;102651.0;;;27.74;35.54
64019;BME280;66942;52.138;5.216;2023-10-08T10:16:01;102646.0;;;27.48;35.79
64019;BME280;66942;52.138;5.216;2023-10-08T10:17:37;102649.0;;;27.48;36.14
64019;BME280;66942;52.138;5.216;2023-10-08T10:20:58;102651.0;;;27.59;35.49
64019;BME280;66942;52.138;5.216;2023-10-08T10:22:35;102657.0;;;27.16;36.06
64019;BME280;66942;52.138;5.216;2023-10-08T10:24:22;102659.99999999999;;;27.24;35.96
64019;BME280;66942;52.138;5.216;2023-10-08T10:25:58;102659.99999999999;;;27.84;35.53
64019;BME280;66942;52.138;5.216;2023-10-08T10:29:19;102659.99999999999;;;27.69;35.82
64019;BME280;66942;52.138;5.216;2023-10-08T10:30:57;102659.99999999999;;;27.79;35.71
64019;BME280;66942;52.138;5.216;2023-10-08T10:32:33;102671.0;;;27.71;35.93
64019;BME280;66942;52.138;5.216;2023-10-08T10:35:51;102672.0;;;27.93;35.56
64019;BME280;66942;52.138;5.216;2023-10-08T10:37:27;102672.0;;;27.7;35.61
64019;BME280;66942;52.138;5.216;2023-10-08T10:39:05;102673.0;;;27.92;35.87
64019;BME280;66942;52.138;5.216;2023-10-08T10:40:41;102676.0;;;27.44;35.97
64019;BME280;66942;52.138;5.216;2023-10-08T10:43:54;102681.0;;;27.63;36.04
64019;BME280;66942;52.138;5.216;2023-10-08T10:45:31;102677.0;;;27.83;36.17
64019;BME280;66942;52.138;5.216;2023-10-08T10:47:07;102671.0;;;27.32;36.14
64019;BME280;66942;52.138;5.216;2023-10-08T10:50:19;102663.00000000001;;;27.77;35.9